This is the latest recevied weather packets stored in our database for station/object OK1SBY-15. If no packets are shown the sender has not sent any weather packets the latest 10 day(s).
| Time | Temp. | Humidity | Pressure | Rain* | Wind** | Luminosity | Snow |
|---|---|---|---|---|---|---|---|
| 1777593068 | 5.56° C | 85% | 1013.7 hPa | 0 mm | - | - | - |
| 1777589477 | 6.11° C | 82% | 1013.6 hPa | 0 mm | - | - | - |
| 1777585888 | 6.11° C | 81% | 1013.8 hPa | 0 mm | - | - | - |
| 1777578707 | 6.11° C | 79% | 1013.8 hPa | 0 mm | - | - | - |
| 1777575122 | 7.78° C | 68% | 1013.7 hPa | 0 mm | - | - | - |
| 1777571541 | 11.67° C | 48% | 1013.4 hPa | 0 mm | - | - | - |
| 1777567969 | 16.11° C | 35% | 1013.2 hPa | 0 mm | - | - | - |
| 1777560754 | 20.56° C | 30% | 1013.4 hPa | 0 mm | - | - | - |
| 1777557160 | 20° C | 31% | 1014 hPa | 0 mm | - | - | - |
| 1777553575 | 20° C | 26% | 1014.3 hPa | 0 mm | - | - | - |
| 1777549967 | 16.67° C | 32% | 1014.6 hPa | 0 mm | - | - | - |
| 1777546365 | 22.22° C | 22% | 1015.1 hPa | 0 mm | - | - | - |
| 1777542749 | 16.67° C | 29% | 1016 hPa | 0 mm | - | - | - |
| 1777539142 | 13.33° C | 32% | 1016.5 hPa | 0 mm | - | - | - |
| 1777535539 | 8.89° C | 43% | 1016.8 hPa | 0 mm | - | - | - |
| 1777531944 | 8.89° C | 50% | 1016.8 hPa | 0 mm | - | - | - |
| 1777524747 | 1.11° C | 77% | 1016.3 hPa | 0 mm | - | - | - |
| 1777521155 | -0.56° C | 76% | 1016 hPa | 0 mm | - | - | - |
| 1777517565 | -1.11° C | 75% | 1015.9 hPa | 0 mm | - | - | - |
| 1777513977 | -0.56° C | 74% | 1015.8 hPa | 0 mm | - | - | - |
* Rain latest hour (hover to see other rain measurements)
** Current wind speed in m/s (hover to see current wind gust speed)